sensor_id;sensor_type;location;lat;lon;timestamp;pressure;altitude;pressure_sealevel;temperature;humidity
64388;BME280;50709;52.648;4.764;2023-05-08T00:01:48;102137.94;;;18.11;69.69
64388;BME280;50709;52.648;4.764;2023-05-08T00:04:14;102145.16;;;17.92;69.42
64388;BME280;50709;52.648;4.764;2023-05-08T00:06:39;102143.31;;;18.00;70.22
64388;BME280;50709;52.648;4.764;2023-05-08T00:09:05;102141.56;;;18.02;70.56
64388;BME280;50709;52.648;4.764;2023-05-08T00:11:30;102134.44;;;18.10;70.06
64388;BME280;50709;52.648;4.764;2023-05-08T00:13:56;102146.69;;;18.21;69.33
64388;BME280;50709;52.648;4.764;2023-05-08T00:16:21;102132.69;;;18.08;69.33
64388;BME280;50709;52.648;4.764;2023-05-08T00:18:46;102139.78;;;18.01;69.51
64388;BME280;50709;52.648;4.764;2023-05-08T00:21:12;102156.53;;;18.00;70.34
64388;BME280;50709;52.648;4.764;2023-05-08T00:23:37;102153.03;;;17.98;70.68
64388;BME280;50709;52.648;4.764;2023-05-08T00:26:03;102145.13;;;17.96;70.86
64388;BME280;50709;52.648;4.764;2023-05-08T00:28:29;102139.97;;;17.76;71.37
64388;BME280;50709;52.648;4.764;2023-05-08T00:30:54;102155.69;;;17.95;71.17
64388;BME280;50709;52.648;4.764;2023-05-08T00:33:19;102158.34;;;17.98;71.16
64388;BME280;50709;52.648;4.764;2023-05-08T00:35:45;102124.00;;;17.89;70.71
64388;BME280;50709;52.648;4.764;2023-05-08T00:38:10;102160.03;;;18.05;70.56
64388;BME280;50709;52.648;4.764;2023-05-08T00:40:36;102149.53;;;17.91;70.79
64388;BME280;50709;52.648;4.764;2023-05-08T00:43:01;102142.50;;;17.89;70.76
64388;BME280;50709;52.648;4.764;2023-05-08T00:45:38;102155.72;;;17.96;70.80
64388;BME280;50709;52.648;4.764;2023-05-08T00:48:04;102132.94;;;17.72;70.65
64388;BME280;50709;52.648;4.764;2023-05-08T00:50:30;102145.31;;;17.65;71.42
64388;BME280;50709;52.648;4.764;2023-05-08T00:52:57;102148.81;;;17.72;71.42
64388;BME280;50709;52.648;4.764;2023-05-08T00:55:25;102142.75;;;17.50;72.00
64388;BME280;50709;52.648;4.764;2023-05-08T00:57:50;102148.91;;;17.49;72.30
64388;BME280;50709;52.648;4.764;2023-05-08T01:00:17;102142.75;;;17.52;72.61
64388;BME280;50709;52.648;4.764;2023-05-08T01:02:43;102149.75;;;17.59;72.59
64388;BME280;50709;52.648;4.764;2023-05-08T01:05:09;102141.00;;;17.52;72.37
64388;BME280;50709;52.648;4.764;2023-05-08T01:07:36;102149.84;;;17.48;72.29
64388;BME280;50709;52.648;4.764;2023-05-08T01:10:03;102151.63;;;17.43;72.14
64388;BME280;50709;52.648;4.764;2023-05-08T01:15:28;102151.53;;;17.57;72.04
64388;BME280;50709;52.648;4.764;2023-05-08T01:18:43;102156.81;;;17.57;71.31
64388;BME280;50709;52.648;4.764;2023-05-08T01:32:38;102134.00;;;17.46;71.20
64388;BME280;50709;52.648;4.764;2023-05-08T01:40:16;102140.19;;;17.44;70.68
64388;BME280;50709;52.648;4.764;2023-05-08T01:42:48;102142.78;;;17.42;70.58
64388;BME280;50709;52.648;4.764;2023-05-08T01:45:30;102141.06;;;17.43;69.93
64388;BME280;50709;52.648;4.764;2023-05-08T01:48:09;102144.53;;;17.45;69.64
64388;BME280;50709;52.648;4.764;2023-05-08T01:50:41;102149.91;;;17.29;70.04
64388;BME280;50709;52.648;4.764;2023-05-08T01:53:25;102147.25;;;17.34;69.64
64388;BME280;50709;52.648;4.764;2023-05-08T01:55:56;102142.94;;;17.18;70.23
64388;BME280;50709;52.648;4.764;2023-05-08T01:58:23;102148.22;;;17.18;70.51
64388;BME280;50709;52.648;4.764;2023-05-08T02:00:49;102146.53;;;17.07;71.12
64388;BME280;50709;52.648;4.764;2023-05-08T02:03:16;102163.09;;;17.34;70.82
64388;BME280;50709;52.648;4.764;2023-05-08T02:05:44;102161.47;;;17.05;70.27
64388;BME280;50709;52.648;4.764;2023-05-08T02:08:12;102157.91;;;17.17;70.82
64388;BME280;50709;52.648;4.764;2023-05-08T02:10:40;102164.84;;;17.35;70.51
64388;BME280;50709;52.648;4.764;2023-05-08T02:13:07;102156.09;;;17.27;69.88
64388;BME280;50709;52.648;4.764;2023-05-08T02:15:35;102159.72;;;17.07;70.04
64388;BME280;50709;52.648;4.764;2023-05-08T02:18:06;102157.97;;;16.98;70.20
64388;BME280;50709;52.648;4.764;2023-05-08T02:20:32;102170.28;;;17.00;70.54
64388;BME280;50709;52.648;4.764;2023-05-08T02:22:59;102158.00;;;16.89;70.46
64388;BME280;50709;52.648;4.764;2023-05-08T02:25:27;102161.53;;;16.93;71.38
64388;BME280;50709;52.648;4.764;2023-05-08T02:27:55;102152.69;;;17.00;70.54
64388;BME280;50709;52.648;4.764;2023-05-08T02:30:22;102169.38;;;17.11;70.23
64388;BME280;50709;52.648;4.764;2023-05-08T02:32:49;102163.28;;;16.94;69.73
64388;BME280;50709;52.648;4.764;2023-05-08T02:35:18;102159.72;;;16.86;70.41
64388;BME280;50709;52.648;4.764;2023-05-08T02:37:46;102166.78;;;16.84;71.32
64388;BME280;50709;52.648;4.764;2023-05-08T02:40:13;102169.44;;;16.79;70.73
64388;BME280;50709;52.648;4.764;2023-05-08T02:42:40;102149.25;;;16.62;71.60
64388;BME280;50709;52.648;4.764;2023-05-08T02:45:07;102161.56;;;16.57;71.83
64388;BME280;50709;52.648;4.764;2023-05-08T02:48:06;102165.94;;;16.71;72.23
64388;BME280;50709;52.648;4.764;2023-05-08T02:51:01;102158.03;;;16.66;71.47
64388;BME280;50709;52.648;4.764;2023-05-08T02:53:35;102150.16;;;16.51;72.36
64388;BME280;50709;52.648;4.764;2023-05-08T02:56:09;102142.25;;;16.46;73.39
64388;BME280;50709;52.648;4.764;2023-05-08T02:58:44;102146.63;;;16.53;73.11
64388;BME280;50709;52.648;4.764;2023-05-08T03:01:20;102148.38;;;16.57;73.23
64388;BME280;50709;52.648;4.764;2023-05-08T03:04:03;102157.16;;;16.69;72.92
64388;BME280;50709;52.648;4.764;2023-05-08T03:06:34;102154.50;;;16.62;72.75
64388;BME280;50709;52.648;4.764;2023-05-08T03:09:01;102145.75;;;16.68;72.39
64388;BME280;50709;52.648;4.764;2023-05-08T03:11:38;102118.47;;;16.60;72.08
64388;BME280;50709;52.648;4.764;2023-05-08T03:14:08;102139.63;;;16.51;72.96
64388;BME280;50709;52.648;4.764;2023-05-08T03:16:35;102146.63;;;16.58;73.52
64388;BME280;50709;52.648;4.764;2023-05-08T03:19:07;102136.94;;;16.63;73.00
64388;BME280;50709;52.648;4.764;2023-05-08T03:21:35;102142.22;;;16.58;72.61
64388;BME280;50709;52.648;4.764;2023-05-08T03:24:04;102143.97;;;16.64;73.63
64388;BME280;50709;52.648;4.764;2023-05-08T03:26:31;102140.41;;;16.77;72.66
64388;BME280;50709;52.648;4.764;2023-05-08T03:28:58;102141.34;;;16.58;72.58
64388;BME280;50709;52.648;4.764;2023-05-08T03:31:24;102138.66;;;16.72;72.74
64388;BME280;50709;52.648;4.764;2023-05-08T03:33:52;102143.09;;;16.70;72.41
64388;BME280;50709;52.648;4.764;2023-05-08T03:36:20;102118.53;;;16.44;72.40
64388;BME280;50709;52.648;4.764;2023-05-08T03:38:47;102143.06;;;16.74;72.24
64388;BME280;50709;52.648;4.764;2023-05-08T03:41:13;102148.38;;;16.70;72.50
64388;BME280;50709;52.648;4.764;2023-05-08T03:43:39;102137.81;;;16.68;72.84
64388;BME280;50709;52.648;4.764;2023-05-08T03:46:06;102144.81;;;16.83;72.30
64388;BME280;50709;52.648;4.764;2023-05-08T03:48:32;102143.03;;;16.85;72.69
64388;BME280;50709;52.648;4.764;2023-05-08T03:51:00;102133.34;;;16.86;71.92
64388;BME280;50709;52.648;4.764;2023-05-08T03:53:47;102122.91;;;16.48;72.62
64388;BME280;50709;52.648;4.764;2023-05-08T03:56:13;102118.50;;;16.63;72.85
64388;BME280;50709;52.648;4.764;2023-05-08T03:58:53;102130.75;;;16.76;72.60
64388;BME280;50709;52.648;4.764;2023-05-08T04:01:46;102146.56;;;16.81;72.73
64388;BME280;50709;52.648;4.764;2023-05-08T04:04:22;102105.25;;;16.75;72.59
64388;BME280;50709;52.648;4.764;2023-05-08T04:07:09;102143.91;;;16.98;72.80
64388;BME280;50709;52.648;4.764;2023-05-08T04:09:58;102128.06;;;16.95;72.41
64388;BME280;50709;52.648;4.764;2023-05-08T04:12:37;102136.00;;;16.93;72.66
64388;BME280;50709;52.648;4.764;2023-05-08T04:15:08;102135.13;;;16.94;72.45
64388;BME280;50709;52.648;4.764;2023-05-08T04:17:41;102117.53;;;16.81;72.70
64388;BME280;50709;52.648;4.764;2023-05-08T04:20:10;102126.34;;;16.94;72.88
64388;BME280;50709;52.648;4.764;2023-05-08T04:22:38;102124.53;;;16.88;72.61
64388;BME280;50709;52.648;4.764;2023-05-08T04:25:06;102140.41;;;16.80;73.84
64388;BME280;50709;52.648;4.764;2023-05-08T04:27:34;102143.91;;;16.82;73.54
64388;BME280;50709;52.648;4.764;2023-05-08T04:30:00;102138.66;;;16.81;73.64
64388;BME280;50709;52.648;4.764;2023-05-08T04:32:28;102143.03;;;16.77;73.95
64388;BME280;50709;52.648;4.764;2023-05-08T04:34:54;102138.69;;;16.76;73.77
64388;BME280;50709;52.648;4.764;2023-05-08T04:37:24;102150.09;;;16.71;74.10
64388;BME280;50709;52.648;4.764;2023-05-08T04:39:50;102164.19;;;16.73;74.56
64388;BME280;50709;52.648;4.764;2023-05-08T04:42:15;102168.59;;;16.47;75.23
64388;BME280;50709;52.648;4.764;2023-05-08T04:44:41;102143.13;;;16.50;74.72
64388;BME280;50709;52.648;4.764;2023-05-08T04:47:06;102159.81;;;16.65;74.16
64388;BME280;50709;52.648;4.764;2023-05-08T04:49:32;102177.38;;;16.68;73.88
64388;BME280;50709;52.648;4.764;2023-05-08T04:51:57;102166.81;;;16.73;73.92
64388;BME280;50709;52.648;4.764;2023-05-08T04:54:22;102173.84;;;16.75;73.95
64388;BME280;50709;52.648;4.764;2023-05-08T04:56:48;102161.59;;;16.20;74.94
64388;BME280;50709;52.648;4.764;2023-05-08T04:59:13;102177.41;;;16.20;75.41
64388;BME280;50709;52.648;4.764;2023-05-08T05:01:39;102166.78;;;15.54;77.70
64388;BME280;50709;52.648;4.764;2023-05-08T05:04:04;102175.69;;;16.11;77.29
64388;BME280;50709;52.648;4.764;2023-05-08T05:06:29;102180.94;;;15.94;78.04
64388;BME280;50709;52.648;4.764;2023-05-08T05:08:55;102176.53;;;15.87;77.17
64388;BME280;50709;52.648;4.764;2023-05-08T05:11:20;102187.88;;;15.68;78.90
64388;BME280;50709;52.648;4.764;2023-05-08T05:13:46;102187.09;;;16.12;78.56
64388;BME280;50709;52.648;4.764;2023-05-08T05:16:12;102187.09;;;16.10;77.82
64388;BME280;50709;52.648;4.764;2023-05-08T05:18:37;102187.06;;;16.27;78.07
64388;BME280;50709;52.648;4.764;2023-05-08T05:21:03;102177.38;;;16.62;76.75
64388;BME280;50709;52.648;4.764;2023-05-08T05:23:28;102192.34;;;16.63;76.62
64388;BME280;50709;52.648;4.764;2023-05-08T05:25:53;102188.84;;;16.24;76.72
64388;BME280;50709;52.648;4.764;2023-05-08T05:28:19;102187.97;;;16.40;77.40
64388;BME280;50709;52.648;4.764;2023-05-08T05:30:47;102183.56;;;16.45;77.58
64388;BME280;50709;52.648;4.764;2023-05-08T05:33:13;102187.00;;;16.81;76.08
64388;BME280;50709;52.648;4.764;2023-05-08T05:35:38;102185.28;;;16.80;76.67
64388;BME280;50709;52.648;4.764;2023-05-08T05:38:04;102187.91;;;16.73;76.68
64388;BME280;50709;52.648;4.764;2023-05-08T05:40:29;102191.38;;;16.86;76.69
64388;BME280;50709;52.648;4.764;2023-05-08T05:42:55;102197.59;;;16.69;77.54
64388;BME280;50709;52.648;4.764;2023-05-08T05:45:20;102195.88;;;16.51;78.32
64388;BME280;50709;52.648;4.764;2023-05-08T05:47:46;102193.19;;;16.65;78.12
64388;BME280;50709;52.648;4.764;2023-05-08T05:50:17;102195.00;;;16.44;78.52
64388;BME280;50709;52.648;4.764;2023-05-08T05:52:43;102190.59;;;16.40;79.36
64388;BME280;50709;52.648;4.764;2023-05-08T05:55:09;102207.31;;;16.22;79.61
64388;BME280;50709;52.648;4.764;2023-05-08T05:57:34;102198.50;;;16.05;81.11
64388;BME280;50709;52.648;4.764;2023-05-08T05:59:59;102204.66;;;16.36;79.81
64388;BME280;50709;52.648;4.764;2023-05-08T06:02:25;102192.34;;;16.26;79.42
64388;BME280;50709;52.648;4.764;2023-05-08T06:04:51;102199.41;;;16.44;79.96
64388;BME280;50709;52.648;4.764;2023-05-08T06:07:16;102216.09;;;16.52;79.42
64388;BME280;50709;52.648;4.764;2023-05-08T06:09:41;102199.41;;;16.36;79.79
64388;BME280;50709;52.648;4.764;2023-05-08T06:12:07;102223.09;;;16.59;79.53
64388;BME280;50709;52.648;4.764;2023-05-08T06:14:32;102217.84;;;16.44;80.54
64388;BME280;50709;52.648;4.764;2023-05-08T06:16:58;102198.47;;;16.56;79.52
64388;BME280;50709;52.648;4.764;2023-05-08T06:19:24;102206.34;;;16.88;78.45
64388;BME280;50709;52.648;4.764;2023-05-08T06:21:50;102222.25;;;16.51;79.96
64388;BME280;50709;52.648;4.764;2023-05-08T06:24:16;102212.59;;;16.22;80.81
64388;BME280;50709;52.648;4.764;2023-05-08T06:26:41;102211.69;;;16.19;81.26
64388;BME280;50709;52.648;4.764;2023-05-08T06:29:07;102213.44;;;16.46;79.92
64388;BME280;50709;52.648;4.764;2023-05-08T06:31:32;102219.53;;;16.88;78.32
64388;BME280;50709;52.648;4.764;2023-05-08T06:33:58;102209.88;;;16.82;78.64
64388;BME280;50709;52.648;4.764;2023-05-08T06:36:23;102208.97;;;17.08;77.29
64388;BME280;50709;52.648;4.764;2023-05-08T06:38:48;102215.13;;;17.06;77.14
64388;BME280;50709;52.648;4.764;2023-05-08T06:41:14;102208.16;;;16.57;78.77
64388;BME280;50709;52.648;4.764;2023-05-08T06:43:39;102220.47;;;16.25;80.34
64388;BME280;50709;52.648;4.764;2023-05-08T06:46:05;102209.84;;;16.86;78.81
64388;BME280;50709;52.648;4.764;2023-05-08T06:48:30;102203.69;;;17.05;77.54
64388;BME280;50709;52.648;4.764;2023-05-08T06:50:55;102208.97;;;17.08;77.40
64388;BME280;50709;52.648;4.764;2023-05-08T06:53:21;102204.59;;;17.01;77.35
64388;BME280;50709;52.648;4.764;2023-05-08T06:55:46;102210.78;;;16.60;79.20
64388;BME280;50709;52.648;4.764;2023-05-08T06:58:11;102223.06;;;16.84;78.76
64388;BME280;50709;52.648;4.764;2023-05-08T07:00:37;102199.25;;;17.20;76.71
64388;BME280;50709;52.648;4.764;2023-05-08T07:03:02;102200.06;;;17.37;75.99
64388;BME280;50709;52.648;4.764;2023-05-08T07:05:28;102195.59;;;17.48;75.57
64388;BME280;50709;52.648;4.764;2023-05-08T07:07:53;102190.47;;;17.10;76.89
64388;BME280;50709;52.648;4.764;2023-05-08T07:10:21;102187.88;;;17.01;77.41
64388;BME280;50709;52.648;4.764;2023-05-08T07:12:47;102201.03;;;17.16;76.72
64388;BME280;50709;52.648;4.764;2023-05-08T07:15:13;102180.84;;;16.95;77.88
64388;BME280;50709;52.648;4.764;2023-05-08T07:17:38;102173.88;;;16.61;78.59
64388;BME280;50709;52.648;4.764;2023-05-08T07:20:04;102194.00;;;17.06;77.75
64388;BME280;50709;52.648;4.764;2023-05-08T07:22:30;102173.78;;;17.08;77.17
64388;BME280;50709;52.648;4.764;2023-05-08T07:24:55;102197.59;;;16.77;78.28
64388;BME280;50709;52.648;4.764;2023-05-08T07:27:20;102203.78;;;16.60;79.68
64388;BME280;50709;52.648;4.764;2023-05-08T07:29:46;102213.44;;;16.47;80.38
64388;BME280;50709;52.648;4.764;2023-05-08T07:32:11;102202.84;;;16.85;79.60
64388;BME280;50709;52.648;4.764;2023-05-08T07:34:37;102196.69;;;16.87;78.85
64388;BME280;50709;52.648;4.764;2023-05-08T07:37:02;102200.22;;;16.77;79.71
64388;BME280;50709;52.648;4.764;2023-05-08T07:39:28;102194.00;;;17.10;78.26
64388;BME280;50709;52.648;4.764;2023-05-08T07:41:53;102194.72;;;17.43;77.16
64388;BME280;50709;52.648;4.764;2023-05-08T07:44:18;102170.34;;;16.76;78.29
64388;BME280;50709;52.648;4.764;2023-05-08T07:46:44;102194.94;;;16.78;78.76
64388;BME280;50709;52.648;4.764;2023-05-08T07:49:09;102168.56;;;16.75;78.96
64388;BME280;50709;52.648;4.764;2023-05-08T07:51:35;102199.13;;;17.44;76.90
64388;BME280;50709;52.648;4.764;2023-05-08T07:54:00;102190.41;;;17.30;77.04
64388;BME280;50709;52.648;4.764;2023-05-08T07:56:26;102193.84;;;17.47;76.21
64388;BME280;50709;52.648;4.764;2023-05-08T07:58:52;102197.31;;;17.56;76.08
64388;BME280;50709;52.648;4.764;2023-05-08T08:01:18;102193.81;;;17.55;76.25
64388;BME280;50709;52.648;4.764;2023-05-08T08:03:44;102191.22;;;17.46;75.79
64388;BME280;50709;52.648;4.764;2023-05-08T08:06:10;102196.50;;;17.43;76.52
64388;BME280;50709;52.648;4.764;2023-05-08T08:08:35;102194.75;;;17.42;76.52
64388;BME280;50709;52.648;4.764;2023-05-08T08:11:01;102197.56;;;16.95;78.44
64388;BME280;50709;52.648;4.764;2023-05-08T08:13:26;102208.91;;;17.25;77.10
64388;BME280;50709;52.648;4.764;2023-05-08T08:15:52;102199.13;;;17.52;76.26
64388;BME280;50709;52.648;4.764;2023-05-08T08:18:17;102210.50;;;17.56;76.19
64388;BME280;50709;52.648;4.764;2023-05-08T08:20:43;102194.91;;;17.08;77.31
64388;BME280;50709;52.648;4.764;2023-05-08T08:23:08;102208.91;;;17.19;77.59
64388;BME280;50709;52.648;4.764;2023-05-08T08:25:34;102199.25;;;17.17;77.46
64388;BME280;50709;52.648;4.764;2023-05-08T08:27:59;102211.50;;;17.31;77.24
64388;BME280;50709;52.648;4.764;2023-05-08T08:30:25;102215.13;;;17.04;78.24
64388;BME280;50709;52.648;4.764;2023-05-08T08:32:50;102215.94;;;17.22;76.63
64388;BME280;50709;52.648;4.764;2023-05-08T08:35:16;102213.19;;;17.57;75.71
64388;BME280;50709;52.648;4.764;2023-05-08T08:37:41;102191.06;;;17.69;74.25
64388;BME280;50709;52.648;4.764;2023-05-08T08:40:07;102209.56;;;17.69;74.32
64388;BME280;50709;52.648;4.764;2023-05-08T08:42:33;102210.31;;;17.88;74.08
64388;BME280;50709;52.648;4.764;2023-05-08T08:44:59;102203.50;;;17.56;74.69
64388;BME280;50709;52.648;4.764;2023-05-08T08:47:30;102203.31;;;17.82;74.40
64388;BME280;50709;52.648;4.764;2023-05-08T08:50:01;102197.16;;;17.83;73.96
64388;BME280;50709;52.648;4.764;2023-05-08T08:52:46;102202.53;;;17.65;74.75
64388;BME280;50709;52.648;4.764;2023-05-08T08:55:17;102198.03;;;17.86;73.84
64388;BME280;50709;52.648;4.764;2023-05-08T09:00:26;102167.09;;;18.02;73.21
64388;BME280;50709;52.648;4.764;2023-05-08T09:02:53;102202.13;;;18.31;72.05
64388;BME280;50709;52.648;4.764;2023-05-08T09:05:21;102187.25;;;18.18;72.01
64388;BME280;50709;52.648;4.764;2023-05-08T09:07:48;102189.06;;;18.13;72.25
64388;BME280;50709;52.648;4.764;2023-05-08T09:10:14;102204.66;;;18.45;71.68
64388;BME280;50709;52.648;4.764;2023-05-08T09:12:40;102168.72;;;18.21;71.93
64388;BME280;50709;52.648;4.764;2023-05-08T09:15:06;102198.34;;;18.59;71.01
64388;BME280;50709;52.648;4.764;2023-05-08T09:17:32;102173.44;;;18.78;69.42
64388;BME280;50709;52.648;4.764;2023-05-08T09:19:57;102195.22;;;19.05;68.47
64388;BME280;50709;52.648;4.764;2023-05-08T09:22:23;102202.88;;;19.31;67.29
64388;BME280;50709;52.648;4.764;2023-05-08T09:24:58;102201.00;;;19.40;67.07
64388;BME280;50709;52.648;4.764;2023-05-08T09:27:25;102205.28;;;19.48;66.54
64388;BME280;50709;52.648;4.764;2023-05-08T09:30:02;102182.44;;;19.41;66.24
64388;BME280;50709;52.648;4.764;2023-05-08T09:32:32;102185.25;;;19.26;67.02
64388;BME280;50709;52.648;4.764;2023-05-08T09:34:58;102181.56;;;19.38;66.31
64388;BME280;50709;52.648;4.764;2023-05-08T09:37:25;102192.31;;;19.27;67.13
64388;BME280;50709;52.648;4.764;2023-05-08T09:39:51;102197.31;;;19.52;65.83
64388;BME280;50709;52.648;4.764;2023-05-08T09:42:17;102198.94;;;19.60;66.03
64388;BME280;50709;52.648;4.764;2023-05-08T09:44:48;102205.91;;;19.66;65.04
64388;BME280;50709;52.648;4.764;2023-05-08T09:47:16;102192.75;;;19.61;65.67
64388;BME280;50709;52.648;4.764;2023-05-08T09:50:02;102195.13;;;19.78;64.87
64388;BME280;50709;52.648;4.764;2023-05-08T09:52:29;102189.16;;;19.65;65.21
64388;BME280;50709;52.648;4.764;2023-05-08T09:55:02;102203.28;;;19.64;64.92
64388;BME280;50709;52.648;4.764;2023-05-08T09:57:30;102187.34;;;19.67;64.57
64388;BME280;50709;52.648;4.764;2023-05-08T10:00:25;102204.81;;;19.82;64.54
64388;BME280;50709;52.648;4.764;2023-05-08T10:02:59;102206.53;;;19.87;64.60
64388;BME280;50709;52.648;4.764;2023-05-08T10:05:30;102207.44;;;19.86;64.17
64388;BME280;50709;52.648;4.764;2023-05-08T10:08:17;102211.78;;;19.91;64.32
64388;BME280;50709;52.648;4.764;2023-05-08T10:10:42;102203.81;;;19.91;64.00
64388;BME280;50709;52.648;4.764;2023-05-08T10:13:08;102218.94;;;19.85;65.08
64388;BME280;50709;52.648;4.764;2023-05-08T10:15:36;102206.66;;;19.77;64.55
64388;BME280;50709;52.648;4.764;2023-05-08T10:18:03;102201.28;;;19.83;64.55
64388;BME280;50709;52.648;4.764;2023-05-08T10:20:34;102206.47;;;19.91;64.34
64388;BME280;50709;52.648;4.764;2023-05-08T10:23:03;102206.22;;;20.08;63.67
64388;BME280;50709;52.648;4.764;2023-05-08T10:25:33;102186.03;;;19.98;63.42
64388;BME280;50709;52.648;4.764;2023-05-08T10:30:25;102195.00;;;19.91;63.14
64388;BME280;50709;52.648;4.764;2023-05-08T10:32:51;102201.84;;;19.42;64.14
64388;BME280;50709;52.648;4.764;2023-05-08T10:35:20;102184.66;;;19.72;63.90
64388;BME280;50709;52.648;4.764;2023-05-08T10:37:47;102199.47;;;19.87;64.23
64388;BME280;50709;52.648;4.764;2023-05-08T10:40:13;102186.28;;;19.82;63.84
64388;BME280;50709;52.648;4.764;2023-05-08T10:42:46;102216.84;;;20.08;63.67
64388;BME280;50709;52.648;4.764;2023-05-08T10:45:11;102194.00;;;19.98;63.75
64388;BME280;50709;52.648;4.764;2023-05-08T10:50:35;102212.13;;;20.24;63.08
64388;BME280;50709;52.648;4.764;2023-05-08T10:53:14;102193.72;;;20.15;63.23
64388;BME280;50709;52.648;4.764;2023-05-08T10:55:44;102204.25;;;20.20;63.01
64388;BME280;50709;52.648;4.764;2023-05-08T10:58:14;102176.25;;;20.03;62.95
64388;BME280;50709;52.648;4.764;2023-05-08T11:03:27;102213.84;;;20.27;62.86
64388;BME280;50709;52.648;4.764;2023-05-08T11:05:54;102204.94;;;20.31;62.70
64388;BME280;50709;52.648;4.764;2023-05-08T11:08:26;102202.78;;;20.55;62.18
64388;BME280;50709;52.648;4.764;2023-05-08T11:13:42;102196.41;;;20.63;61.65
64388;BME280;50709;52.648;4.764;2023-05-08T11:16:09;102198.22;;;20.61;61.83
64388;BME280;50709;52.648;4.764;2023-05-08T11:22:20;102188.09;;;20.83;61.20
64388;BME280;50709;52.648;4.764;2023-05-08T11:24:53;102185.72;;;20.70;61.49
64388;BME280;50709;52.648;4.764;2023-05-08T11:28:08;102187.03;;;20.94;61.11
64388;BME280;50709;52.648;4.764;2023-05-08T11:38:32;102172.75;;;20.99;60.46
64388;BME280;50709;52.648;4.764;2023-05-08T11:41:01;102158.47;;;21.05;60.44
64388;BME280;50709;52.648;4.764;2023-05-08T11:43:42;102156.00;;;20.96;60.86
64388;BME280;50709;52.648;4.764;2023-05-08T11:46:14;102168.03;;;21.14;60.06
64388;BME280;50709;52.648;4.764;2023-05-08T11:48:40;102140.78;;;21.04;60.46
64388;BME280;50709;52.648;4.764;2023-05-08T11:51:06;102177.59;;;20.79;61.45
64388;BME280;50709;52.648;4.764;2023-05-08T11:53:31;102172.47;;;21.12;61.06
64388;BME280;50709;52.648;4.764;2023-05-08T11:55:58;102175.66;;;20.87;61.42
64388;BME280;50709;52.648;4.764;2023-05-08T11:58:25;102159.63;;;20.93;61.34
64388;BME280;50709;52.648;4.764;2023-05-08T12:00:50;102166.69;;;20.93;61.04
64388;BME280;50709;52.648;4.764;2023-05-08T12:03:18;102162.19;;;20.96;61.11
64388;BME280;50709;52.648;4.764;2023-05-08T12:05:44;102167.28;;;21.07;60.74
64388;BME280;50709;52.648;4.764;2023-05-08T12:08:11;102146.84;;;21.09;59.26
64388;BME280;50709;52.648;4.764;2023-05-08T12:13:18;102130.72;;;21.18;60.08
64388;BME280;50709;52.648;4.764;2023-05-08T12:15:48;102151.94;;;21.22;60.02
64388;BME280;50709;52.648;4.764;2023-05-08T12:18:15;102158.78;;;21.32;59.96
64388;BME280;50709;52.648;4.764;2023-05-08T12:20:41;102149.91;;;21.33;59.09
64388;BME280;50709;52.648;4.764;2023-05-08T12:23:07;102158.69;;;21.37;60.12
64388;BME280;50709;52.648;4.764;2023-05-08T12:25:36;102156.56;;;21.54;58.95
64388;BME280;50709;52.648;4.764;2023-05-08T12:28:02;102154.81;;;21.51;59.27
64388;BME280;50709;52.648;4.764;2023-05-08T12:30:28;102143.47;;;21.43;59.77
64388;BME280;50709;52.648;4.764;2023-05-08T12:32:55;102148.72;;;21.46;59.61
64388;BME280;50709;52.648;4.764;2023-05-08T12:35:20;102157.88;;;21.33;58.71
64388;BME280;50709;52.648;4.764;2023-05-08T12:37:46;102153.91;;;21.51;59.58
64388;BME280;50709;52.648;4.764;2023-05-08T12:40:25;102153.88;;;21.52;59.62
64388;BME280;50709;52.648;4.764;2023-05-08T12:42:51;102149.50;;;21.53;59.85
64388;BME280;50709;52.648;4.764;2023-05-08T12:45:24;102142.16;;;21.63;59.21
64388;BME280;50709;52.648;4.764;2023-05-08T12:47:52;102127.06;;;21.63;59.14
64388;BME280;50709;52.648;4.764;2023-05-08T12:50:19;102138.91;;;21.50;58.82
64388;BME280;50709;52.648;4.764;2023-05-08T12:52:46;102141.50;;;21.53;59.55
64388;BME280;50709;52.648;4.764;2023-05-08T12:55:25;102142.94;;;21.68;60.13
64388;BME280;50709;52.648;4.764;2023-05-08T12:58:11;102141.41;;;21.94;58.24
64388;BME280;50709;52.648;4.764;2023-05-08T13:00:43;102144.09;;;21.94;58.45
64388;BME280;50709;52.648;4.764;2023-05-08T13:03:10;102143.84;;;21.67;57.04
64388;BME280;50709;52.648;4.764;2023-05-08T13:05:40;102137.19;;;21.87;58.92
64388;BME280;50709;52.648;4.764;2023-05-08T13:08:07;102124.69;;;21.89;57.52
64388;BME280;50709;52.648;4.764;2023-05-08T13:13:15;102138.34;;;22.09;57.78
64388;BME280;50709;52.648;4.764;2023-05-08T13:15:41;102105.22;;;21.88;57.52
64388;BME280;50709;52.648;4.764;2023-05-08T13:18:06;102121.06;;;21.93;58.25
64388;BME280;50709;52.648;4.764;2023-05-08T13:20:35;102132.03;;;22.15;58.69
64388;BME280;50709;52.648;4.764;2023-05-08T13:23:01;102114.50;;;22.06;57.27
64388;BME280;50709;52.648;4.764;2023-05-08T13:25:27;102096.28;;;21.91;58.37
64388;BME280;50709;52.648;4.764;2023-05-08T13:27:53;102126.75;;;22.12;58.52
64388;BME280;50709;52.648;4.764;2023-05-08T13:30:19;102099.84;;;21.90;57.43
64388;BME280;50709;52.648;4.764;2023-05-08T13:32:47;102104.00;;;22.01;56.50
64388;BME280;50709;52.648;4.764;2023-05-08T13:35:12;102133.84;;;22.13;58.75
64388;BME280;50709;52.648;4.764;2023-05-08T13:37:37;102116.97;;;22.14;58.78
64388;BME280;50709;52.648;4.764;2023-05-08T13:40:03;102125.81;;;22.14;58.89
64388;BME280;50709;52.648;4.764;2023-05-08T13:42:29;102129.75;;;21.99;58.72
64388;BME280;50709;52.648;4.764;2023-05-08T13:44:54;102127.38;;;22.23;58.66
64388;BME280;50709;52.648;4.764;2023-05-08T13:47:20;102111.22;;;22.29;57.81